sensor_id;sensor_type;location;lat;lon;timestamp;temperature;humidity
18191;DHT22;47004;51.366;12.348;2022-12-07T00:01:59;2.20;99.90
18191;DHT22;47004;51.366;12.348;2022-12-07T00:04:02;2.10;99.90
18191;DHT22;47004;51.366;12.348;2022-12-07T00:06:06;2.10;99.90
18191;DHT22;47004;51.366;12.348;2022-12-07T00:08:09;2.10;99.90
18191;DHT22;47004;51.366;12.348;2022-12-07T00:10:11;2.10;99.90
18191;DHT22;47004;51.366;12.348;2022-12-07T00:12:13;2.20;99.90
18191;DHT22;47004;51.366;12.348;2022-12-07T00:14:17;2.10;99.90
18191;DHT22;47004;51.366;12.348;2022-12-07T00:16:22;2.10;99.90
18191;DHT22;47004;51.366;12.348;2022-12-07T00:18:24;2.10;99.90
18191;DHT22;47004;51.366;12.348;2022-12-07T00:20:26;2.10;99.90
18191;DHT22;47004;51.366;12.348;2022-12-07T00:22:28;2.10;99.90
18191;DHT22;47004;51.366;12.348;2022-12-07T00:24:30;2.00;99.90
18191;DHT22;47004;51.366;12.348;2022-12-07T00:26:34;2.00;99.90
18191;DHT22;47004;51.366;12.348;2022-12-07T00:28:37;2.00;99.90
18191;DHT22;47004;51.366;12.348;2022-12-07T00:30:40;2.00;99.90
18191;DHT22;47004;51.366;12.348;2022-12-07T00:32:42;2.00;99.90
18191;DHT22;47004;51.366;12.348;2022-12-07T00:34:44;1.90;99.90
18191;DHT22;47004;51.366;12.348;2022-12-07T00:36:47;1.90;99.90
18191;DHT22;47004;51.366;12.348;2022-12-07T00:38:49;2.80;99.90
18191;DHT22;47004;51.366;12.348;2022-12-07T00:40:58;1.80;99.90
18191;DHT22;47004;51.366;12.348;2022-12-07T00:43:00;1.80;99.90
18191;DHT22;47004;51.366;12.348;2022-12-07T00:45:02;1.80;99.90
18191;DHT22;47004;51.366;12.348;2022-12-07T00:47:05;1.70;99.90
18191;DHT22;47004;51.366;12.348;2022-12-07T00:49:07;1.60;99.90
18191;DHT22;47004;51.366;12.348;2022-12-07T00:51:11;1.60;99.90
18191;DHT22;47004;51.366;12.348;2022-12-07T00:53:13;1.60;99.90
18191;DHT22;47004;51.366;12.348;2022-12-07T00:55:16;1.60;99.90
18191;DHT22;47004;51.366;12.348;2022-12-07T00:57:18;1.50;99.90
18191;DHT22;47004;51.366;12.348;2022-12-07T00:59:20;1.50;99.90
18191;DHT22;47004;51.366;12.348;2022-12-07T01:01:22;1.70;99.90
18191;DHT22;47004;51.366;12.348;2022-12-07T01:03:26;1.40;99.90
18191;DHT22;47004;51.366;12.348;2022-12-07T01:05:28;1.80;99.90
18191;DHT22;47004;51.366;12.348;2022-12-07T01:07:30;1.30;99.90
18191;DHT22;47004;51.366;12.348;2022-12-07T01:09:32;1.30;99.90
18191;DHT22;47004;51.366;12.348;2022-12-07T01:11:34;1.30;99.90
18191;DHT22;47004;51.366;12.348;2022-12-07T01:13:36;1.30;99.90
18191;DHT22;47004;51.366;12.348;2022-12-07T01:15:39;1.20;99.90
18191;DHT22;47004;51.366;12.348;2022-12-07T01:17:41;1.20;99.90
18191;DHT22;47004;51.366;12.348;2022-12-07T01:19:47;1.20;99.90
18191;DHT22;47004;51.366;12.348;2022-12-07T01:21:49;1.10;99.90
18191;DHT22;47004;51.366;12.348;2022-12-07T01:23:52;1.40;99.90
18191;DHT22;47004;51.366;12.348;2022-12-07T01:25:55;1.00;99.90
18191;DHT22;47004;51.366;12.348;2022-12-07T01:27:57;1.00;99.90
18191;DHT22;47004;51.366;12.348;2022-12-07T01:29:59;1.00;99.90
18191;DHT22;47004;51.366;12.348;2022-12-07T01:32:01;2.10;99.90
18191;DHT22;47004;51.366;12.348;2022-12-07T01:34:03;0.90;99.90
18191;DHT22;47004;51.366;12.348;2022-12-07T01:36:08;0.90;99.90
18191;DHT22;47004;51.366;12.348;2022-12-07T01:38:13;0.90;99.90
18191;DHT22;47004;51.366;12.348;2022-12-07T01:40:15;0.80;99.90
18191;DHT22;47004;51.366;12.348;2022-12-07T01:42:18;0.80;99.90
18191;DHT22;47004;51.366;12.348;2022-12-07T01:44:22;0.80;99.90
18191;DHT22;47004;51.366;12.348;2022-12-07T01:46:24;0.80;99.90
18191;DHT22;47004;51.366;12.348;2022-12-07T01:48:29;0.80;99.90
18191;DHT22;47004;51.366;12.348;2022-12-07T01:50:32;0.70;99.90
18191;DHT22;47004;51.366;12.348;2022-12-07T01:52:37;0.70;99.90
18191;DHT22;47004;51.366;12.348;2022-12-07T01:54:40;0.70;99.90
18191;DHT22;47004;51.366;12.348;2022-12-07T01:56:48;0.70;99.90
18191;DHT22;47004;51.366;12.348;2022-12-07T01:58:52;0.60;99.90
18191;DHT22;47004;51.366;12.348;2022-12-07T02:00:54;0.60;99.90
18191;DHT22;47004;51.366;12.348;2022-12-07T02:03:01;0.60;99.90
18191;DHT22;47004;51.366;12.348;2022-12-07T02:05:06;0.70;99.90
18191;DHT22;47004;51.366;12.348;2022-12-07T02:07:08;0.50;99.90
18191;DHT22;47004;51.366;12.348;2022-12-07T02:09:12;0.60;99.90
18191;DHT22;47004;51.366;12.348;2022-12-07T02:11:15;0.50;99.90
18191;DHT22;47004;51.366;12.348;2022-12-07T02:13:19;0.50;99.90
18191;DHT22;47004;51.366;12.348;2022-12-07T02:15:26;0.50;99.90
18191;DHT22;47004;51.366;12.348;2022-12-07T02:17:37;0.40;99.90
18191;DHT22;47004;51.366;12.348;2022-12-07T02:20:26;0.40;99.90
18191;DHT22;47004;51.366;12.348;2022-12-07T02:25:01;0.40;99.90
18191;DHT22;47004;51.366;12.348;2022-12-07T02:27:33;0.40;99.90
18191;DHT22;47004;51.366;12.348;2022-12-07T02:29:44;0.40;99.90
18191;DHT22;47004;51.366;12.348;2022-12-07T02:31:56;0.40;99.90
18191;DHT22;47004;51.366;12.348;2022-12-07T02:34:05;0.50;99.90
18191;DHT22;47004;51.366;12.348;2022-12-07T02:36:13;0.30;99.90
18191;DHT22;47004;51.366;12.348;2022-12-07T02:38:22;0.30;99.90
18191;DHT22;47004;51.366;12.348;2022-12-07T02:40:31;0.30;99.90
18191;DHT22;47004;51.366;12.348;2022-12-07T02:42:40;0.70;99.90
18191;DHT22;47004;51.366;12.348;2022-12-07T02:44:46;0.30;99.90
18191;DHT22;47004;51.366;12.348;2022-12-07T02:46:52;0.30;99.90
18191;DHT22;47004;51.366;12.348;2022-12-07T02:48:55;0.30;99.90
18191;DHT22;47004;51.366;12.348;2022-12-07T02:51:00;0.80;99.90
18191;DHT22;47004;51.366;12.348;2022-12-07T02:53:02;0.30;99.90
18191;DHT22;47004;51.366;12.348;2022-12-07T02:55:04;0.30;99.90
18191;DHT22;47004;51.366;12.348;2022-12-07T02:57:21;0.30;99.90
18191;DHT22;47004;51.366;12.348;2022-12-07T02:59:31;0.30;99.90
18191;DHT22;47004;51.366;12.348;2022-12-07T03:01:42;0.30;99.90
18191;DHT22;47004;51.366;12.348;2022-12-07T03:03:55;0.30;99.90
18191;DHT22;47004;51.366;12.348;2022-12-07T03:06:12;0.30;99.90
18191;DHT22;47004;51.366;12.348;2022-12-07T03:08:24;0.30;99.90
18191;DHT22;47004;51.366;12.348;2022-12-07T03:10:36;0.30;99.90
18191;DHT22;47004;51.366;12.348;2022-12-07T03:12:45;0.30;99.90
18191;DHT22;47004;51.366;12.348;2022-12-07T03:14:52;0.40;99.90
18191;DHT22;47004;51.366;12.348;2022-12-07T03:17:02;0.30;99.90
18191;DHT22;47004;51.366;12.348;2022-12-07T03:19:08;0.30;99.90
18191;DHT22;47004;51.366;12.348;2022-12-07T03:21:15;0.30;99.90
18191;DHT22;47004;51.366;12.348;2022-12-07T03:23:19;0.40;99.90
18191;DHT22;47004;51.366;12.348;2022-12-07T03:25:24;0.30;99.90
18191;DHT22;47004;51.366;12.348;2022-12-07T03:27:31;0.40;99.90
18191;DHT22;47004;51.366;12.348;2022-12-07T03:29:36;0.40;99.90
18191;DHT22;47004;51.366;12.348;2022-12-07T03:31:41;0.40;99.90
18191;DHT22;47004;51.366;12.348;2022-12-07T03:33:49;0.40;99.90
18191;DHT22;47004;51.366;12.348;2022-12-07T03:36:01;0.40;99.90
18191;DHT22;47004;51.366;12.348;2022-12-07T03:38:11;1.00;99.90
18191;DHT22;47004;51.366;12.348;2022-12-07T03:40:20;0.40;99.90
18191;DHT22;47004;51.366;12.348;2022-12-07T03:42:25;0.40;99.90
18191;DHT22;47004;51.366;12.348;2022-12-07T03:44:30;0.40;99.90
18191;DHT22;47004;51.366;12.348;2022-12-07T03:46:37;0.40;99.90
18191;DHT22;47004;51.366;12.348;2022-12-07T03:48:44;0.50;99.90
18191;DHT22;47004;51.366;12.348;2022-12-07T03:50:53;0.40;99.90
18191;DHT22;47004;51.366;12.348;2022-12-07T03:52:59;0.50;99.90
18191;DHT22;47004;51.366;12.348;2022-12-07T03:55:09;0.50;99.90
18191;DHT22;47004;51.366;12.348;2022-12-07T03:57:12;0.50;99.90
18191;DHT22;47004;51.366;12.348;2022-12-07T03:59:15;0.50;99.90
18191;DHT22;47004;51.366;12.348;2022-12-07T04:01:18;0.60;99.90
18191;DHT22;47004;51.366;12.348;2022-12-07T04:03:20;0.50;99.90
18191;DHT22;47004;51.366;12.348;2022-12-07T04:05:23;1.50;99.90
18191;DHT22;47004;51.366;12.348;2022-12-07T04:07:26;0.60;99.90
18191;DHT22;47004;51.366;12.348;2022-12-07T04:09:28;0.60;99.90
18191;DHT22;47004;51.366;12.348;2022-12-07T04:11:30;0.60;99.90
18191;DHT22;47004;51.366;12.348;2022-12-07T04:13:35;0.70;99.90
18191;DHT22;47004;51.366;12.348;2022-12-07T04:15:57;0.70;99.90
18191;DHT22;47004;51.366;12.348;2022-12-07T04:17:59;1.00;99.90
18191;DHT22;47004;51.366;12.348;2022-12-07T04:20:01;0.70;99.90
18191;DHT22;47004;51.366;12.348;2022-12-07T04:22:05;0.70;99.90
18191;DHT22;47004;51.366;12.348;2022-12-07T04:24:08;0.70;99.90
18191;DHT22;47004;51.366;12.348;2022-12-07T04:26:10;0.80;99.90
18191;DHT22;47004;51.366;12.348;2022-12-07T04:28:14;0.80;99.90
18191;DHT22;47004;51.366;12.348;2022-12-07T04:30:16;0.80;99.90
18191;DHT22;47004;51.366;12.348;2022-12-07T04:32:18;0.80;99.90
18191;DHT22;47004;51.366;12.348;2022-12-07T04:34:20;0.80;99.90
18191;DHT22;47004;51.366;12.348;2022-12-07T04:36:22;1.10;99.90
18191;DHT22;47004;51.366;12.348;2022-12-07T04:38:24;0.90;99.90
18191;DHT22;47004;51.366;12.348;2022-12-07T04:40:27;1.50;99.90
18191;DHT22;47004;51.366;12.348;2022-12-07T04:42:29;1.00;99.90
18191;DHT22;47004;51.366;12.348;2022-12-07T04:44:31;0.90;99.90
18191;DHT22;47004;51.366;12.348;2022-12-07T04:46:33;0.90;99.90
18191;DHT22;47004;51.366;12.348;2022-12-07T04:48:35;1.00;99.90
18191;DHT22;47004;51.366;12.348;2022-12-07T04:50:37;1.00;99.90
18191;DHT22;47004;51.366;12.348;2022-12-07T04:52:39;1.00;99.90
18191;DHT22;47004;51.366;12.348;2022-12-07T04:54:41;1.00;99.90
18191;DHT22;47004;51.366;12.348;2022-12-07T04:56:44;1.00;99.90
18191;DHT22;47004;51.366;12.348;2022-12-07T04:58:48;1.10;99.90
18191;DHT22;47004;51.366;12.348;2022-12-07T05:00:54;1.00;99.90
18191;DHT22;47004;51.366;12.348;2022-12-07T05:02:56;1.30;99.90
18191;DHT22;47004;51.366;12.348;2022-12-07T05:04:58;1.10;99.90
18191;DHT22;47004;51.366;12.348;2022-12-07T05:07:00;1.10;99.90
18191;DHT22;47004;51.366;12.348;2022-12-07T05:09:03;1.40;99.90
18191;DHT22;47004;51.366;12.348;2022-12-07T05:11:06;1.10;99.90
18191;DHT22;47004;51.366;12.348;2022-12-07T05:13:10;1.10;99.90
18191;DHT22;47004;51.366;12.348;2022-12-07T05:15:14;1.10;99.90
18191;DHT22;47004;51.366;12.348;2022-12-07T05:17:17;1.20;99.90
18191;DHT22;47004;51.366;12.348;2022-12-07T05:19:19;1.20;99.90
18191;DHT22;47004;51.366;12.348;2022-12-07T05:21:21;1.20;99.90
18191;DHT22;47004;51.366;12.348;2022-12-07T05:23:23;1.20;99.90
18191;DHT22;47004;51.366;12.348;2022-12-07T05:25:25;1.20;99.90
18191;DHT22;47004;51.366;12.348;2022-12-07T05:27:27;1.10;99.90
18191;DHT22;47004;51.366;12.348;2022-12-07T05:29:31;1.20;99.90
18191;DHT22;47004;51.366;12.348;2022-12-07T05:31:33;1.20;99.90
18191;DHT22;47004;51.366;12.348;2022-12-07T05:33:35;1.30;99.90
18191;DHT22;47004;51.366;12.348;2022-12-07T05:35:37;1.30;99.90
18191;DHT22;47004;51.366;12.348;2022-12-07T05:37:39;1.30;99.90
18191;DHT22;47004;51.366;12.348;2022-12-07T05:39:41;1.30;99.90
18191;DHT22;47004;51.366;12.348;2022-12-07T05:41:43;1.30;99.90
18191;DHT22;47004;51.366;12.348;2022-12-07T05:44:03;1.30;99.90
18191;DHT22;47004;51.366;12.348;2022-12-07T05:46:07;1.30;99.90
18191;DHT22;47004;51.366;12.348;2022-12-07T05:48:09;1.30;99.90
18191;DHT22;47004;51.366;12.348;2022-12-07T05:50:11;1.40;99.90
18191;DHT22;47004;51.366;12.348;2022-12-07T05:52:13;1.90;99.90
18191;DHT22;47004;51.366;12.348;2022-12-07T05:54:15;1.40;99.90
18191;DHT22;47004;51.366;12.348;2022-12-07T05:56:17;1.50;99.90
18191;DHT22;47004;51.366;12.348;2022-12-07T05:58:19;1.50;99.90
18191;DHT22;47004;51.366;12.348;2022-12-07T06:00:38;1.50;99.90
18191;DHT22;47004;51.366;12.348;2022-12-07T06:02:41;1.50;99.90
18191;DHT22;47004;51.366;12.348;2022-12-07T06:04:45;1.50;99.90
18191;DHT22;47004;51.366;12.348;2022-12-07T06:06:49;1.50;99.90
18191;DHT22;47004;51.366;12.348;2022-12-07T06:08:52;1.50;99.90
18191;DHT22;47004;51.366;12.348;2022-12-07T06:10:54;1.80;99.90
18191;DHT22;47004;51.366;12.348;2022-12-07T06:13:09;2.20;99.90
18191;DHT22;47004;51.366;12.348;2022-12-07T06:15:12;1.60;99.90
18191;DHT22;47004;51.366;12.348;2022-12-07T06:17:15;1.60;99.90
18191;DHT22;47004;51.366;12.348;2022-12-07T06:19:18;1.60;99.90
18191;DHT22;47004;51.366;12.348;2022-12-07T06:21:20;1.60;99.90
18191;DHT22;47004;51.366;12.348;2022-12-07T06:23:22;1.70;99.90
18191;DHT22;47004;51.366;12.348;2022-12-07T06:25:24;1.70;99.90
18191;DHT22;47004;51.366;12.348;2022-12-07T06:27:26;1.70;99.90
18191;DHT22;47004;51.366;12.348;2022-12-07T06:29:28;1.70;99.90
18191;DHT22;47004;51.366;12.348;2022-12-07T06:31:30;1.70;99.90
18191;DHT22;47004;51.366;12.348;2022-12-07T06:33:32;1.70;99.90
18191;DHT22;47004;51.366;12.348;2022-12-07T06:35:35;1.70;99.90
18191;DHT22;47004;51.366;12.348;2022-12-07T06:37:37;1.70;99.90
18191;DHT22;47004;51.366;12.348;2022-12-07T06:39:39;1.70;99.90
18191;DHT22;47004;51.366;12.348;2022-12-07T06:41:41;1.70;99.90
18191;DHT22;47004;51.366;12.348;2022-12-07T06:43:43;1.70;99.90
18191;DHT22;47004;51.366;12.348;2022-12-07T06:45:45;1.70;99.90
18191;DHT22;47004;51.366;12.348;2022-12-07T06:47:50;1.70;99.90
18191;DHT22;47004;51.366;12.348;2022-12-07T06:49:52;1.70;99.90
18191;DHT22;47004;51.366;12.348;2022-12-07T06:51:55;1.70;99.90
18191;DHT22;47004;51.366;12.348;2022-12-07T06:53:57;1.70;99.90
18191;DHT22;47004;51.366;12.348;2022-12-07T06:56:00;1.70;99.90
18191;DHT22;47004;51.366;12.348;2022-12-07T06:58:02;1.70;99.90
18191;DHT22;47004;51.366;12.348;2022-12-07T07:00:05;1.70;99.90
18191;DHT22;47004;51.366;12.348;2022-12-07T07:02:08;1.80;99.90
18191;DHT22;47004;51.366;12.348;2022-12-07T07:04:10;1.80;99.90
18191;DHT22;47004;51.366;12.348;2022-12-07T07:06:15;1.80;99.90
18191;DHT22;47004;51.366;12.348;2022-12-07T07:08:18;1.80;99.90
18191;DHT22;47004;51.366;12.348;2022-12-07T07:10:20;1.80;99.90
18191;DHT22;47004;51.366;12.348;2022-12-07T07:12:22;1.90;99.90
18191;DHT22;47004;51.366;12.348;2022-12-07T07:14:24;1.90;99.90
18191;DHT22;47004;51.366;12.348;2022-12-07T07:16:26;1.90;99.90
18191;DHT22;47004;51.366;12.348;2022-12-07T07:18:31;1.90;99.90
18191;DHT22;47004;51.366;12.348;2022-12-07T07:20:33;1.90;99.90
18191;DHT22;47004;51.366;12.348;2022-12-07T07:22:35;2.00;99.90
18191;DHT22;47004;51.366;12.348;2022-12-07T07:24:38;2.00;99.90
18191;DHT22;47004;51.366;12.348;2022-12-07T07:26:40;1.90;99.90
18191;DHT22;47004;51.366;12.348;2022-12-07T07:28:42;2.00;99.90
18191;DHT22;47004;51.366;12.348;2022-12-07T07:30:47;2.00;99.90
18191;DHT22;47004;51.366;12.348;2022-12-07T07:32:49;2.00;99.90
18191;DHT22;47004;51.366;12.348;2022-12-07T07:34:51;2.00;99.90
18191;DHT22;47004;51.366;12.348;2022-12-07T07:36:53;2.00;99.90
18191;DHT22;47004;51.366;12.348;2022-12-07T07:38:54;2.00;99.90
18191;DHT22;47004;51.366;12.348;2022-12-07T07:40:58;2.00;99.90
18191;DHT22;47004;51.366;12.348;2022-12-07T07:43:00;2.00;99.90
18191;DHT22;47004;51.366;12.348;2022-12-07T07:45:02;2.00;99.90
18191;DHT22;47004;51.366;12.348;2022-12-07T07:47:05;2.00;99.90
18191;DHT22;47004;51.366;12.348;2022-12-07T07:49:08;2.00;99.90
18191;DHT22;47004;51.366;12.348;2022-12-07T07:51:11;2.00;99.90
18191;DHT22;47004;51.366;12.348;2022-12-07T07:53:14;2.00;99.90
18191;DHT22;47004;51.366;12.348;2022-12-07T07:55:16;2.00;99.90
18191;DHT22;47004;51.366;12.348;2022-12-07T07:57:20;2.00;99.90
18191;DHT22;47004;51.366;12.348;2022-12-07T07:59:24;2.00;99.90
18191;DHT22;47004;51.366;12.348;2022-12-07T08:01:26;2.00;99.90
18191;DHT22;47004;51.366;12.348;2022-12-07T08:03:28;2.00;99.90
18191;DHT22;47004;51.366;12.348;2022-12-07T08:05:30;2.00;99.90
18191;DHT22;47004;51.366;12.348;2022-12-07T08:07:32;2.10;99.90
18191;DHT22;47004;51.366;12.348;2022-12-07T08:09:35;2.10;99.90
18191;DHT22;47004;51.366;12.348;2022-12-07T08:11:37;2.10;99.90
18191;DHT22;47004;51.366;12.348;2022-12-07T08:13:44;2.10;99.90
18191;DHT22;47004;51.366;12.348;2022-12-07T08:15:48;1.80;99.90
18191;DHT22;47004;51.366;12.348;2022-12-07T08:17:50;2.10;99.90
18191;DHT22;47004;51.366;12.348;2022-12-07T08:19:52;2.10;99.90
18191;DHT22;47004;51.366;12.348;2022-12-07T08:21:54;2.10;99.90
18191;DHT22;47004;51.366;12.348;2022-12-07T08:23:57;2.10;99.90
18191;DHT22;47004;51.366;12.348;2022-12-07T08:26:00;2.10;99.90
18191;DHT22;47004;51.366;12.348;2022-12-07T08:28:02;2.20;99.90
18191;DHT22;47004;51.366;12.348;2022-12-07T08:30:07;2.00;99.90
18191;DHT22;47004;51.366;12.348;2022-12-07T08:32:09;2.20;99.90
18191;DHT22;47004;51.366;12.348;2022-12-07T08:34:12;2.30;99.90
18191;DHT22;47004;51.366;12.348;2022-12-07T08:36:15;2.30;99.90
18191;DHT22;47004;51.366;12.348;2022-12-07T08:38:17;2.30;99.90
18191;DHT22;47004;51.366;12.348;2022-12-07T08:40:19;2.40;99.90
18191;DHT22;47004;51.366;12.348;2022-12-07T08:42:21;2.40;99.90
18191;DHT22;47004;51.366;12.348;2022-12-07T08:44:27;2.50;99.90
18191;DHT22;47004;51.366;12.348;2022-12-07T08:46:34;2.60;99.90
18191;DHT22;47004;51.366;12.348;2022-12-07T08:48:42;2.80;99.90
18191;DHT22;47004;51.366;12.348;2022-12-07T08:50:46;2.60;99.90
18191;DHT22;47004;51.366;12.348;2022-12-07T08:52:49;2.70;99.90
18191;DHT22;47004;51.366;12.348;2022-12-07T08:54:52;2.70;99.90
18191;DHT22;47004;51.366;12.348;2022-12-07T08:56:55;2.80;99.90
18191;DHT22;47004;51.366;12.348;2022-12-07T08:58:58;2.70;99.90
18191;DHT22;47004;51.366;12.348;2022-12-07T09:01:00;2.80;99.90
18191;DHT22;47004;51.366;12.348;2022-12-07T09:03:03;2.80;99.90
18191;DHT22;47004;51.366;12.348;2022-12-07T09:05:05;2.90;99.90
18191;DHT22;47004;51.366;12.348;2022-12-07T09:07:08;2.90;99.90
18191;DHT22;47004;51.366;12.348;2022-12-07T09:09:11;2.90;99.90
18191;DHT22;47004;51.366;12.348;2022-12-07T09:11:14;2.90;99.90
18191;DHT22;47004;51.366;12.348;2022-12-07T09:13:16;3.00;99.90
18191;DHT22;47004;51.366;12.348;2022-12-07T09:15:18;3.00;99.90
18191;DHT22;47004;51.366;12.348;2022-12-07T09:17:20;3.30;99.90
18191;DHT22;47004;51.366;12.348;2022-12-07T09:19:24;3.70;99.90
18191;DHT22;47004;51.366;12.348;2022-12-07T09:21:26;3.10;99.90
18191;DHT22;47004;51.366;12.348;2022-12-07T09:23:28;3.10;99.90
18191;DHT22;47004;51.366;12.348;2022-12-07T09:25:30;3.10;99.90
18191;DHT22;47004;51.366;12.348;2022-12-07T09:27:31;3.20;99.90
18191;DHT22;47004;51.366;12.348;2022-12-07T09:29:34;3.20;99.90
18191;DHT22;47004;51.366;12.348;2022-12-07T09:31:36;3.20;99.90
18191;DHT22;47004;51.366;12.348;2022-12-07T09:33:39;3.20;99.90
18191;DHT22;47004;51.366;12.348;2022-12-07T09:35:45;3.20;99.90
18191;DHT22;47004;51.366;12.348;2022-12-07T09:37:47;3.20;99.90
18191;DHT22;47004;51.366;12.348;2022-12-07T09:39:50;3.20;99.90
18191;DHT22;47004;51.366;12.348;2022-12-07T09:41:51;3.10;99.90
18191;DHT22;47004;51.366;12.348;2022-12-07T09:43:58;3.20;99.90
18191;DHT22;47004;51.366;12.348;2022-12-07T09:46:02;3.20;99.90
18191;DHT22;47004;51.366;12.348;2022-12-07T09:48:05;3.20;99.90
18191;DHT22;47004;51.366;12.348;2022-12-07T09:50:15;3.20;99.90
18191;DHT22;47004;51.366;12.348;2022-12-07T09:52:21;3.20;99.90
18191;DHT22;47004;51.366;12.348;2022-12-07T09:54:26;3.10;99.90
18191;DHT22;47004;51.366;12.348;2022-12-07T09:56:29;3.20;99.90
18191;DHT22;47004;51.366;12.348;2022-12-07T09:58:33;3.10;99.90
18191;DHT22;47004;51.366;12.348;2022-12-07T10:00:35;3.60;99.90
18191;DHT22;47004;51.366;12.348;2022-12-07T10:02:39;3.20;99.90
18191;DHT22;47004;51.366;12.348;2022-12-07T10:04:43;3.20;99.90
18191;DHT22;47004;51.366;12.348;2022-12-07T10:06:45;3.20;99.90
18191;DHT22;47004;51.366;12.348;2022-12-07T10:08:49;3.20;99.90
18191;DHT22;47004;51.366;12.348;2022-12-07T10:10:53;3.20;99.90
18191;DHT22;47004;51.366;12.348;2022-12-07T10:12:58;3.30;99.90
18191;DHT22;47004;51.366;12.348;2022-12-07T10:15:03;3.30;99.90
18191;DHT22;47004;51.366;12.348;2022-12-07T10:19:47;3.00;99.90
18191;DHT22;47004;51.366;12.348;2022-12-07T10:22:05;3.40;99.90
18191;DHT22;47004;51.366;12.348;2022-12-07T10:24:15;3.40;99.90
18191;DHT22;47004;51.366;12.348;2022-12-07T10:26:26;3.50;99.90
18191;DHT22;47004;51.366;12.348;2022-12-07T10:28:35;3.50;99.90
18191;DHT22;47004;51.366;12.348;2022-12-07T10:30:47;3.60;99.90
18191;DHT22;47004;51.366;12.348;2022-12-07T10:32:50;3.60;99.90
18191;DHT22;47004;51.366;12.348;2022-12-07T10:35:18;3.60;99.90
18191;DHT22;47004;51.366;12.348;2022-12-07T10:37:20;3.60;99.90
18191;DHT22;47004;51.366;12.348;2022-12-07T10:39:27;3.70;99.90
18191;DHT22;47004;51.366;12.348;2022-12-07T10:41:30;3.80;99.90
18191;DHT22;47004;51.366;12.348;2022-12-07T10:43:32;3.70;99.90
18191;DHT22;47004;51.366;12.348;2022-12-07T10:45:35;3.70;99.90
18191;DHT22;47004;51.366;12.348;2022-12-07T10:47:46;3.70;99.90
18191;DHT22;47004;51.366;12.348;2022-12-07T10:52:40;3.80;99.90
18191;DHT22;47004;51.366;12.348;2022-12-07T10:54:51;3.80;99.90
18191;DHT22;47004;51.366;12.348;2022-12-07T10:57:09;3.80;99.90
18191;DHT22;47004;51.366;12.348;2022-12-07T10:59:34;3.80;99.90
18191;DHT22;47004;51.366;12.348;2022-12-07T11:01:45;3.80;99.90
18191;DHT22;47004;51.366;12.348;2022-12-07T11:04:11;3.80;99.90
18191;DHT22;47004;51.366;12.348;2022-12-07T11:06:23;3.90;99.90
18191;DHT22;47004;51.366;12.348;2022-12-07T11:08:42;3.90;99.90
18191;DHT22;47004;51.366;12.348;2022-12-07T11:10:51;3.90;99.90
18191;DHT22;47004;51.366;12.348;2022-12-07T11:13:05;3.80;99.90
18191;DHT22;47004;51.366;12.348;2022-12-07T11:15:17;3.80;99.90
18191;DHT22;47004;51.366;12.348;2022-12-07T11:17:25;3.80;99.90
18191;DHT22;47004;51.366;12.348;2022-12-07T11:19:45;3.80;99.90
18191;DHT22;47004;51.366;12.348;2022-12-07T11:21:56;3.70;99.90
18191;DHT22;47004;51.366;12.348;2022-12-07T11:24:03;3.60;99.90
18191;DHT22;47004;51.366;12.348;2022-12-07T11:26:13;3.60;99.90
18191;DHT22;47004;51.366;12.348;2022-12-07T11:28:26;3.60;99.90
18191;DHT22;47004;51.366;12.348;2022-12-07T11:30:35;3.60;99.90
18191;DHT22;47004;51.366;12.348;2022-12-07T11:33:01;3.60;99.90
18191;DHT22;47004;51.366;12.348;2022-12-07T11:35:11;3.50;99.90
18191;DHT22;47004;51.366;12.348;2022-12-07T11:37:20;4.20;99.90
18191;DHT22;47004;51.366;12.348;2022-12-07T11:39:26;3.50;99.90
18191;DHT22;47004;51.366;12.348;2022-12-07T11:41:35;3.50;99.90
18191;DHT22;47004;51.366;12.348;2022-12-07T11:43:37;3.50;99.90
18191;DHT22;47004;51.366;12.348;2022-12-07T11:45:44;3.50;99.90
18191;DHT22;47004;51.366;12.348;2022-12-07T11:47:53;3.60;99.90
18191;DHT22;47004;51.366;12.348;2022-12-07T11:50:01;3.80;99.90
18191;DHT22;47004;51.366;12.348;2022-12-07T11:52:06;3.60;99.90
18191;DHT22;47004;51.366;12.348;2022-12-07T11:54:15;3.70;99.90
18191;DHT22;47004;51.366;12.348;2022-12-07T11:56:21;3.60;99.90
18191;DHT22;47004;51.366;12.348;2022-12-07T11:58:38;3.80;99.90
18191;DHT22;47004;51.366;12.348;2022-12-07T12:00:42;3.70;99.90
18191;DHT22;47004;51.366;12.348;2022-12-07T12:02:49;3.80;99.90
18191;DHT22;47004;51.366;12.348;2022-12-07T12:04:56;3.80;99.90
18191;DHT22;47004;51.366;12.348;2022-12-07T12:07:01;3.80;99.90
18191;DHT22;47004;51.366;12.348;2022-12-07T12:09:10;3.80;99.90
18191;DHT22;47004;51.366;12.348;2022-12-07T12:11:22;3.80;99.90
18191;DHT22;47004;51.366;12.348;2022-12-07T12:16:23;3.80;99.90
18191;DHT22;47004;51.366;12.348;2022-12-07T12:18:51;3.90;99.90
18191;DHT22;47004;51.366;12.348;2022-12-07T12:21:00;3.90;99.90
18191;DHT22;47004;51.366;12.348;2022-12-07T12:23:09;3.90;99.90
18191;DHT22;47004;51.366;12.348;2022-12-07T12:25:20;3.90;99.90
18191;DHT22;47004;51.366;12.348;2022-12-07T12:27:26;4.00;99.90
18191;DHT22;47004;51.366;12.348;2022-12-07T12:29:34;4.00;99.90
18191;DHT22;47004;51.366;12.348;2022-12-07T12:31:39;4.00;99.90
18191;DHT22;47004;51.366;12.348;2022-12-07T12:33:45;4.00;99.90
18191;DHT22;47004;51.366;12.348;2022-12-07T12:36:19;4.00;99.90
18191;DHT22;47004;51.366;12.348;2022-12-07T12:38:29;4.00;99.90
18191;DHT22;47004;51.366;12.348;2022-12-07T12:40:51;4.10;99.90
18191;DHT22;47004;51.366;12.348;2022-12-07T12:42:54;4.10;99.90
18191;DHT22;47004;51.366;12.348;2022-12-07T12:50:15;4.10;99.90
18191;DHT22;47004;51.366;12.348;2022-12-07T12:52:59;4.10;99.90
18191;DHT22;47004;51.366;12.348;2022-12-07T12:55:13;4.10;99.90
18191;DHT22;47004;51.366;12.348;2022-12-07T12:57:24;4.10;99.90
18191;DHT22;47004;51.366;12.348;2022-12-07T12:59:29;4.10;99.90
18191;DHT22;47004;51.366;12.348;2022-12-07T13:01:42;4.10;99.90
18191;DHT22;47004;51.366;12.348;2022-12-07T13:03:54;4.10;99.90
18191;DHT22;47004;51.366;12.348;2022-12-07T13:06:19;4.10;99.90
18191;DHT22;47004;51.366;12.348;2022-12-07T13:08:25;4.10;99.90
18191;DHT22;47004;51.366;12.348;2022-12-07T13:10:39;4.30;99.90
18191;DHT22;47004;51.366;12.348;2022-12-07T13:12:41;4.10;99.90
18191;DHT22;47004;51.366;12.348;2022-12-07T13:14:55;4.10;99.90
18191;DHT22;47004;51.366;12.348;2022-12-07T13:16:58;4.00;99.90
18191;DHT22;47004;51.366;12.348;2022-12-07T13:19:02;4.10;99.90
18191;DHT22;47004;51.366;12.348;2022-12-07T13:23:55;4.10;99.90
18191;DHT22;47004;51.366;12.348;2022-12-07T13:26:13;4.10;99.90
18191;DHT22;47004;51.366;12.348;2022-12-07T13:28:17;4.20;99.90
18191;DHT22;47004;51.366;12.348;2022-12-07T13:30:21;4.20;99.90
18191;DHT22;47004;51.366;12.348;2022-12-07T13:32:25;4.20;99.90